« Back
NWS Peachtree City, Ga » Text Product » MCN Terminal Aerodrome Forecast


Printer-friendly Version
Current Version              Previous Versions:   1  2  3  4  5  6  7  8  9  

Terminal Aerodrome Forecast

662
FTUS42 KFFC 300523
TAFMCN
TAF
KMCN 300523Z 3006/3106 00000KT P6SM FEW050
     FM300800 00000KT 6SM BR FEW012
     FM301000 00000KT 4SM BR SCT012
     FM301300 11003KT P6SM SCT025
     FM301600 11005KT P6SM BKN035
     FM310100 00000KT P6SM FEW060=



USA.gov is the U.S. government's official web portal to all federal, state and local government web resources and services.